Time;durP1;ratioP1;P1;durP2;ratioP2;P2;SDS_P1;SDS_P2;PMS_P1;PMS_P2;Temp;Humidity;BMP_temperature;BMP_pressure;BME280_temperature;BME280_humidity;BME280_pressure;Samples;Min_cycle;Max_cycle;Signal;HPM_P1;HPM_P2
2022/06/20 00:00:12;;;;;;;6.97;3.17;;;24.10;99.90;;;;;;5064268;28;20179;-74
2022/06/20 00:02:45;;;;;;;7.45;3.47;;;23.90;99.90;;;;;;5065122;28;20544;-73
2022/06/20 00:05:14;;;;;;;8.45;3.35;;;23.70;99.90;;;;;;5059594;28;20605;-73
2022/06/20 00:07:40;;;;;;;7.95;3.28;;;23.90;99.90;;;;;;5056372;28;20670;-73
2022/06/20 00:10:06;;;;;;;8.25;3.53;;;23.80;99.90;;;;;;5060035;28;20267;-72
2022/06/20 00:12:32;;;;;;;4.32;3.08;;;23.70;99.90;;;;;;5061610;28;20152;-75
2022/06/20 00:15:00;;;;;;;6.63;3.33;;;23.90;99.90;;;;;;5059269;28;20604;-75
2022/06/20 00:17:26;;;;;;;5.57;3.53;;;24.00;99.90;;;;;;5054455;28;20176;-73
2022/06/20 00:19:52;;;;;;;4.57;3.20;;;23.70;99.90;;;;;;5056534;28;20543;-73
2022/06/20 00:22:18;;;;;;;9.63;3.40;;;23.60;99.90;;;;;;5057737;28;20215;-73
2022/06/20 00:24:44;;;;;;;8.80;3.53;;;23.50;99.90;;;;;;5057203;28;20161;-75
2022/06/20 00:27:10;;;;;;;5.70;3.03;;;23.40;99.90;;;;;;5058842;28;20202;-73
2022/06/20 00:29:41;;;;;;;9.93;3.30;;;23.30;99.90;;;;;;5060108;28;20218;-75
2022/06/20 00:32:09;;;;;;;9.02;3.58;;;23.40;99.90;;;;;;5060838;28;20194;-73
2022/06/20 00:34:35;;;;;;;5.20;3.25;;;23.20;99.90;;;;;;5061383;28;20188;-73
2022/06/20 00:37:01;;;;;;;6.35;3.08;;;23.00;99.90;;;;;;5065790;28;20168;-73
2022/06/20 00:39:27;;;;;;;5.03;3.70;;;22.90;99.90;;;;;;5068732;28;20168;-73
2022/06/20 00:41:53;;;;;;;5.38;3.15;;;22.90;99.90;;;;;;5068697;28;20238;-76
2022/06/20 00:44:30;;;;;;;6.05;3.22;;;23.00;99.90;;;;;;5068752;28;20186;-72
2022/06/20 00:47:00;;;;;;;7.13;3.03;;;22.80;99.90;;;;;;5054522;28;20191;-73
2022/06/20 00:49:33;;;;;;;7.43;3.35;;;22.80;99.90;;;;;;5054294;28;20156;-73
2022/06/20 00:52:41;;;;;;;5.68;3.17;;;22.60;99.90;;;;;;5054298;28;20187;-72
2022/06/20 00:55:16;;;;;;;7.00;3.28;;;22.80;99.90;;;;;;5053881;28;20200;-73
2022/06/20 00:57:57;;;;;;;7.53;3.30;;;22.40;99.90;;;;;;5053974;28;20229;-73
2022/06/20 01:00:27;;;;;;;10.90;3.30;;;22.50;99.90;;;;;;5053915;28;20221;-74
2022/06/20 01:02:58;;;;;;;8.07;4.00;;;22.70;99.90;;;;;;5053440;28;20555;-73
2022/06/20 01:05:39;;;;;;;6.82;4.32;;;22.50;99.90;;;;;;5053579;28;20511;-74
2022/06/20 01:08:11;;;;;;;7.63;3.20;;;22.70;99.90;;;;;;5054064;28;20148;-74
2022/06/20 01:10:57;;;;;;;5.57;3.45;;;22.70;99.90;;;;;;5052859;28;20259;-73
2022/06/20 01:13:24;;;;;;;6.22;3.40;;;22.80;99.90;;;;;;5052829;28;20183;-74
2022/06/20 01:15:52;;;;;;;5.63;3.25;;;22.80;99.90;;;;;;5053151;28;20168;-73
2022/06/20 01:18:33;;;;;;;4.47;2.92;;;22.70;99.90;;;;;;5053247;28;20259;-73
2022/06/20 01:21:00;;;;;;;8.15;3.72;;;22.80;99.90;;;;;;5052818;28;20159;-72
2022/06/20 01:23:43;;;;;;;6.95;3.20;;;22.70;99.90;;;;;;5053039;28;20191;-73
2022/06/20 01:26:20;;;;;;;5.30;3.63;;;22.70;99.90;;;;;;5052922;28;20156;-74
2022/06/20 01:28:48;;;;;;;6.65;3.08;;;22.50;99.90;;;;;;5053249;28;20213;-74
2022/06/20 01:31:17;;;;;;;7.40;2.88;;;22.50;99.90;;;;;;5052833;28;20188;-72
2022/06/20 01:33:44;;;;;;;6.15;3.08;;;22.30;99.90;;;;;;5029926;28;20208;-73
2022/06/20 01:38:59;;;;;;;8.27;3.30;;;22.50;99.90;;;;;;5032909;28;20214;-73
2022/06/20 01:44:14;;;;;;;8.77;3.22;;;22.50;99.90;;;;;;5033061;28;20157;-73
2022/06/20 01:46:39;;;;;;;6.68;3.55;;;22.40;99.90;;;;;;5033490;28;20161;-73
2022/06/20 01:49:12;;;;;;;5.63;3.40;;;22.60;99.90;;;;;;5033097;28;20251;-74
2022/06/20 01:51:45;;;;;;;10.30;3.60;;;22.60;99.90;;;;;;5033239;28;20160;-74
2022/06/20 01:54:13;;;;;;;6.20;3.65;;;22.50;99.90;;;;;;5033223;28;20692;-72
2022/06/20 01:56:40;;;;;;;5.45;3.70;;;22.20;99.90;;;;;;5033226;28;20227;-74
2022/06/20 01:59:12;;;;;;;6.13;3.92;;;22.00;99.90;;;;;;5033310;28;20224;-76
2022/06/20 02:01:37;;;;;;;5.50;3.40;;;21.90;99.90;;;;;;5032966;28;20258;-74
2022/06/20 02:04:05;;;;;;;7.15;4.07;;;22.30;99.90;;;;;;5032202;28;20184;-72
2022/06/20 02:06:32;;;;;;;4.95;3.40;;;22.00;99.90;;;;;;5032563;28;20184;-72
2022/06/20 02:08:59;;;;;;;6.82;3.83;;;22.10;99.90;;;;;;5033080;28;20184;-74
2022/06/20 02:11:27;;;;;;;5.57;3.55;;;22.10;99.90;;;;;;5032902;28;20175;-73
2022/06/20 02:13:58;;;;;;;3.95;3.35;;;22.10;99.90;;;;;;5031625;28;20196;-73
2022/06/20 02:16:26;;;;;;;7.05;3.17;;;22.20;99.90;;;;;;5034724;28;20164;-73
2022/06/20 02:18:59;;;;;;;9.40;3.83;;;21.80;99.90;;;;;;5036341;28;20248;-72
2022/06/20 02:21:28;;;;;;;4.50;3.05;;;21.90;99.90;;;;;;5035194;28;20287;-73
2022/06/20 02:24:00;;;;;;;5.85;3.47;;;22.00;99.90;;;;;;5036397;28;20222;-73
2022/06/20 02:26:27;;;;;;;8.50;3.30;;;22.10;99.90;;;;;;5032551;28;20176;-73
2022/06/20 02:29:24;;;;;;;9.23;3.53;;;22.20;99.90;;;;;;5033354;28;20227;-74
2022/06/20 02:32:02;;;;;;;6.60;3.55;;;22.20;99.90;;;;;;5032607;28;20640;-74
2022/06/20 02:34:29;;;;;;;4.80;3.10;;;21.90;99.90;;;;;;5032433;28;20508;-74
2022/06/20 02:36:57;;;;;;;4.85;2.95;;;22.30;99.90;;;;;;5032511;28;20172;-74
2022/06/20 02:39:24;;;;;;;5.47;3.40;;;22.00;99.90;;;;;;5032466;28;20165;-75
2022/06/20 02:41:58;;;;;;;7.68;3.67;;;22.20;99.90;;;;;;5032978;28;20283;-73
2022/06/20 02:44:24;;;;;;;7.50;3.50;;;21.90;99.90;;;;;;5031951;28;20268;-74
2022/06/20 02:46:52;;;;;;;6.32;3.75;;;21.60;99.90;;;;;;5033926;28;20172;-71
2022/06/20 02:49:21;;;;;;;7.32;3.85;;;21.60;99.90;;;;;;5035254;28;20238;-73
2022/06/20 02:51:52;;;;;;;6.45;3.80;;;21.80;99.90;;;;;;5035940;28;20172;-73
2022/06/20 02:54:22;;;;;;;6.35;3.53;;;22.00;99.90;;;;;;5035814;28;20248;-74
2022/06/20 02:56:52;;;;;;;5.57;3.58;;;22.10;99.90;;;;;;5035849;28;20260;-73
2022/06/20 02:59:24;;;;;;;6.60;3.28;;;22.20;99.90;;;;;;5037252;28;20254;-74
2022/06/20 03:02:09;;;;;;;8.70;3.35;;;22.20;99.90;;;;;;5036986;28;20288;-73
2022/06/20 03:04:39;;;;;;;11.38;3.58;;;22.20;99.90;;;;;;5036143;28;20167;-73
2022/06/20 03:07:19;;;;;;;5.97;3.45;;;22.20;99.90;;;;;;5036177;28;20215;-73
2022/06/20 03:09:49;;;;;;;9.88;3.63;;;22.20;99.90;;;;;;5036106;28;20161;-73
2022/06/20 03:12:15;;;;;;;4.53;3.17;;;22.40;99.90;;;;;;5036214;28;20173;-73
2022/06/20 03:14:49;;;;;;;7.90;3.47;;;22.50;99.90;;;;;;5036447;28;20497;-72
2022/06/20 03:17:16;;;;;;;6.97;3.10;;;22.40;99.90;;;;;;5034862;28;20505;-73
2022/06/20 03:19:47;;;;;;;4.93;3.63;;;22.30;99.90;;;;;;5035947;28;20310;-74
2022/06/20 03:22:17;;;;;;;6.25;3.38;;;21.90;99.90;;;;;;5035252;28;20287;-74
2022/06/20 03:24:44;;;;;;;3.63;3.17;;;21.80;99.90;;;;;;5035803;28;20307;-74
2022/06/20 03:27:19;;;;;;;4.13;2.85;;;21.80;99.90;;;;;;5036761;28;20164;-74
2022/06/20 03:29:46;;;;;;;9.55;3.70;;;22.20;99.90;;;;;;5036832;28;20184;-73
2022/06/20 03:32:12;;;;;;;5.00;3.05;;;22.20;99.90;;;;;;5036761;28;20257;-75
2022/06/20 03:34:38;;;;;;;11.18;3.17;;;22.10;99.90;;;;;;5046512;28;20653;-73
2022/06/20 03:37:06;;;;;;;4.82;3.30;;;22.00;99.90;;;;;;5052209;28;20168;-73
2022/06/20 03:39:34;;;;;;;5.00;3.28;;;22.00;99.90;;;;;;5049880;28;20165;-73
2022/06/20 03:42:01;;;;;;;6.38;3.42;;;21.60;99.90;;;;;;5043782;28;20192;-75
2022/06/20 03:44:32;;;;;;;5.22;3.22;;;21.80;99.90;;;;;;5046673;28;20161;-73
2022/06/20 03:47:18;;;;;;;4.35;3.40;;;22.10;99.90;;;;;;5050483;28;20164;-72
2022/06/20 03:49:50;;;;;;;6.00;3.50;;;22.20;99.90;;;;;;5039483;28;20200;-73
2022/06/20 03:52:34;;;;;;;8.90;3.88;;;22.00;99.90;;;;;;5040131;28;20686;-75
2022/06/20 03:55:04;;;;;;;7.43;4.00;;;22.00;99.90;;;;;;5036456;28;20211;-75
2022/06/20 03:57:38;;;;;;;5.97;3.10;;;21.90;99.90;;;;;;5035389;28;20184;-74
2022/06/20 04:00:06;;;;;;;4.45;3.40;;;21.70;99.90;;;;;;5035283;28;20184;-73
2022/06/20 04:02:43;;;;;;;7.32;3.45;;;21.90;99.90;;;;;;5035488;28;20266;-74
2022/06/20 04:05:26;;;;;;;4.78;3.15;;;22.10;99.90;;;;;;5034569;28;20172;-73
2022/06/20 04:07:57;;;;;;;8.65;4.07;;;22.10;99.90;;;;;;5033096;28;20631;-73
2022/06/20 04:13:22;;;;;;;6.68;4.10;;;22.10;99.90;;;;;;5034899;28;20290;-73
2022/06/20 04:15:57;;;;;;;7.93;3.85;;;22.20;99.90;;;;;;5034441;28;20230;-74
2022/06/20 04:18:40;;;;;;;5.70;3.33;;;22.20;99.90;;;;;;5035188;28;20167;-74
2022/06/20 04:21:21;;;;;;;6.13;3.60;;;22.20;99.90;;;;;;5034655;28;20645;-74
2022/06/20 04:24:24;;;;;;;8.05;3.28;;;22.10;99.90;;;;;;5034536;28;20160;-72
2022/06/20 04:27:03;;;;;;;6.93;3.55;;;22.20;99.90;;;;;;5034186;28;20157;-73
2022/06/20 04:29:41;;;;;;;6.55;3.53;;;22.10;99.90;;;;;;5033116;28;20605;-73
2022/06/20 04:32:17;;;;;;;8.15;3.17;;;22.20;99.90;;;;;;5036861;28;20207;-73
2022/06/20 04:34:53;;;;;;;5.47;3.25;;;22.20;99.90;;;;;;5030002;28;20192;-73
2022/06/20 04:37:32;;;;;;;3.83;3.38;;;22.10;99.90;;;;;;5033485;28;20480;-74
2022/06/20 04:40:19;;;;;;;5.47;3.42;;;22.00;99.90;;;;;;5033913;28;20164;-74
2022/06/20 04:42:53;;;;;;;9.57;3.55;;;21.80;99.90;;;;;;5033789;28;20195;-74
2022/06/20 04:45:30;;;;;;;7.57;3.67;;;21.90;99.90;;;;;;5034199;28;20175;-73
2022/06/20 04:48:02;;;;;;;4.97;3.25;;;22.10;99.90;;;;;;5034288;28;20157;-74
2022/06/20 04:50:32;;;;;;;10.05;3.42;;;22.10;99.90;;;;;;5033652;28;20524;-73
2022/06/20 04:53:05;;;;;;;6.03;3.50;;;22.10;99.90;;;;;;5034051;28;20229;-74
2022/06/20 04:55:33;;;;;;;9.23;3.33;;;22.10;99.90;;;;;;5034097;28;20165;-72
2022/06/20 04:58:02;;;;;;;5.95;3.45;;;22.20;99.90;;;;;;5033264;28;20224;-74
2022/06/20 05:00:38;;;;;;;5.00;3.08;;;22.20;99.90;;;;;;5049053;28;20184;-74
2022/06/20 05:03:06;;;;;;;8.52;3.45;;;22.10;99.90;;;;;;5033842;28;20502;-73
2022/06/20 05:05:37;;;;;;;6.82;3.55;;;22.10;99.90;;;;;;5033462;28;20177;-73
2022/06/20 05:08:06;;;;;;;4.97;3.22;;;22.00;99.90;;;;;;5033512;28;20157;-71
2022/06/20 05:10:46;;;;;;;5.50;3.47;;;21.70;99.90;;;;;;5032984;28;20176;-71
2022/06/20 05:13:17;;;;;;;6.85;3.72;;;21.70;99.90;;;;;;5033886;28;20613;-73
2022/06/20 05:15:46;;;;;;;5.13;3.55;;;21.90;99.90;;;;;;5033407;28;20161;-73
2022/06/20 05:18:22;;;;;;;6.07;3.85;;;22.10;99.90;;;;;;5033281;28;20613;-73
2022/06/20 05:20:52;;;;;;;6.50;3.40;;;22.10;99.90;;;;;;5033287;28;20597;-74
2022/06/20 05:23:39;;;;;;;8.52;3.67;;;22.00;99.90;;;;;;5045303;28;20188;-72
2022/06/20 05:26:08;;;;;;;10.38;3.97;;;22.00;99.90;;;;;;5053405;28;20172;-73
2022/06/20 05:28:37;;;;;;;7.72;4.05;;;22.10;99.90;;;;;;5053138;28;20169;-72
2022/06/20 05:31:05;;;;;;;5.15;3.33;;;22.20;99.90;;;;;;5053353;28;20299;-73
2022/06/20 05:33:41;;;;;;;4.75;3.60;;;22.20;99.90;;;;;;5052458;28;20502;-72
2022/06/20 05:36:13;;;;;;;6.95;3.92;;;22.40;99.90;;;;;;5053450;28;20274;-73
2022/06/20 05:39:03;;;;;;;6.72;3.53;;;22.60;99.90;;;;;;5053393;28;20247;-73
2022/06/20 05:41:28;;;;;;;5.03;3.60;;;22.30;99.90;;;;;;5052006;28;20505;-74
2022/06/20 05:43:55;;;;;;;6.00;3.72;;;22.30;99.90;;;;;;5053250;28;20183;-77
2022/06/20 05:46:27;;;;;;;6.70;4.05;;;22.50;99.90;;;;;;5053412;28;20200;-76
2022/06/20 05:49:06;;;;;;;11.88;3.88;;;22.00;99.90;;;;;;5053174;28;20299;-74
2022/06/20 05:51:36;;;;;;;8.65;3.97;;;22.10;99.90;;;;;;5053418;28;20157;-74
2022/06/20 05:54:18;;;;;;;6.72;3.92;;;22.40;99.90;;;;;;5055042;28;20187;-74
2022/06/20 05:56:55;;;;;;;9.05;4.13;;;22.50;99.90;;;;;;5054291;28;20168;-76
2022/06/20 05:59:40;;;;;;;9.00;4.72;;;22.50;99.90;;;;;;5054614;28;20223;-76
2022/06/20 06:02:21;;;;;;;8.68;3.70;;;22.00;99.90;;;;;;5053496;28;20595;-74
2022/06/20 06:05:13;;;;;;;8.93;3.72;;;22.10;99.90;;;;;;5053606;28;20270;-74
2022/06/20 06:07:52;;;;;;;7.70;4.22;;;22.00;99.90;;;;;;5049996;28;20258;-76
2022/06/20 06:10:21;;;;;;;10.23;4.45;;;22.30;99.90;;;;;;5060663;28;20160;-75
2022/06/20 06:13:01;;;;;;;7.30;4.13;;;22.50;99.90;;;;;;5061179;28;20172;-76
2022/06/20 06:18:42;;;;;;;8.07;4.22;;;22.60;99.90;;;;;;5066050;28;20250;-77
2022/06/20 06:21:09;;;;;;;6.75;4.03;;;22.40;99.90;;;;;;5066477;28;20156;-76
2022/06/20 06:23:35;;;;;;;5.82;3.50;;;22.10;99.90;;;;;;5069916;28;20160;-76
2022/06/20 06:26:01;;;;;;;8.15;4.05;;;21.90;99.90;;;;;;5061278;28;20195;-75
2022/06/20 06:28:28;;;;;;;5.22;3.33;;;21.80;99.90;;;;;;5066408;28;20168;-74
2022/06/20 06:31:00;;;;;;;8.48;3.45;;;21.80;99.90;;;;;;5069079;28;20165;-76
2022/06/20 06:33:49;;;;;;;6.45;3.10;;;21.70;99.90;;;;;;5067089;28;20168;-75
2022/06/20 06:36:20;;;;;;;7.07;2.83;;;21.80;99.90;;;;;;5068426;28;20153;-75
2022/06/20 06:38:52;;;;;;;7.22;3.28;;;21.80;99.90;;;;;;5068605;28;20172;-76
2022/06/20 06:41:28;;;;;;;8.07;3.63;;;21.40;99.90;;;;;;5069441;28;20192;-76
2022/06/20 06:43:55;;;;;;;4.38;3.38;;;21.10;99.90;;;;;;5069717;28;20171;-77
2022/06/20 06:46:27;;;;;;;9.10;3.63;;;21.20;99.90;;;;;;5068573;28;20381;-75
2022/06/20 06:49:07;;;;;;;6.75;3.55;;;21.70;99.90;;;;;;5070632;28;20584;-76
2022/06/20 06:51:54;;;;;;;7.38;3.83;;;21.40;99.90;;;;;;5066937;28;20243;-71
2022/06/20 06:54:46;;;;;;;6.38;3.38;;;21.20;99.90;;;;;;5067154;28;20184;-68
2022/06/20 06:57:37;;;;;;;16.15;4.28;;;21.00;99.90;;;;;;5071273;28;20219;-68
2022/06/20 07:00:03;;;;;;;6.15;3.80;;;21.10;99.90;;;;;;5086097;28;20168;-68
2022/06/20 07:02:32;;;;;;;7.70;4.43;;;21.10;99.90;;;;;;5088647;28;20278;-70
2022/06/20 07:05:04;;;;;;;9.50;4.50;;;20.70;99.90;;;;;;5088119;28;20627;-70
2022/06/20 07:07:37;;;;;;;6.25;4.65;;;20.10;99.90;;;;;;5086322;28;20536;-69
2022/06/20 07:10:03;;;;;;;7.15;4.53;;;20.00;99.90;;;;;;5080351;28;20580;-67
2022/06/20 07:12:51;;;;;;;7.18;4.95;;;19.90;99.90;;;;;;5078303;28;20171;-69
2022/06/20 07:15:23;;;;;;;11.52;4.72;;;20.00;99.90;;;;;;5076840;28;20162;-69
2022/06/20 07:18:01;;;;;;;6.13;4.80;;;20.20;99.90;;;;;;5077059;28;20164;-69
2022/06/20 07:20:36;;;;;;;4.93;4.43;;;20.00;99.90;;;;;;5076478;28;20215;-70
2022/06/20 07:23:09;;;;;;;9.10;5.22;;;20.30;99.90;;;;;;5076969;28;20187;-69
2022/06/20 07:25:38;;;;;;;6.00;4.40;;;20.30;99.90;;;;;;5076428;28;20175;-68
2022/06/20 07:28:22;;;;;;;8.52;5.40;;;20.30;99.90;;;;;;5077140;28;20188;-69
2022/06/20 07:30:55;;;;;;;9.02;4.82;;;20.40;99.90;;;;;;5076993;28;20160;-67
2022/06/20 07:33:26;;;;;;;9.00;5.47;;;20.80;99.90;;;;;;5074831;28;20192;-69
2022/06/20 07:35:56;;;;;;;6.55;5.05;;;21.10;99.90;;;;;;5058549;28;20195;-69
2022/06/20 07:38:36;;;;;;;9.40;4.78;;;21.10;99.90;;;;;;5057143;28;20181;-70
2022/06/20 07:41:16;;;;;;;7.10;4.95;;;21.10;99.90;;;;;;5075597;28;20654;-68
2022/06/20 07:43:54;;;;;;;9.57;4.93;;;21.20;99.90;;;;;;5075008;28;20172;-69
2022/06/20 07:46:41;;;;;;;11.00;5.78;;;21.20;99.90;;;;;;5076662;28;20164;-67
2022/06/20 07:49:22;;;;;;;5.50;4.72;;;21.10;99.90;;;;;;5075054;28;20197;-71
2022/06/20 07:51:51;;;;;;;8.32;5.07;;;21.50;99.90;;;;;;5076593;28;20151;-68
2022/06/20 07:54:28;;;;;;;11.52;5.43;;;21.80;99.90;;;;;;5058354;28;20179;-69
2022/06/20 07:57:10;;;;;;;9.77;4.80;;;21.80;99.90;;;;;;5075888;28;20163;-69
2022/06/20 07:59:40;;;;;;;5.78;4.82;;;21.40;99.90;;;;;;5057288;28;20235;-69
2022/06/20 08:02:14;;;;;;;6.68;5.00;;;21.20;99.90;;;;;;5075670;28;20199;-68
2022/06/20 08:04:42;;;;;;;6.03;4.82;;;21.30;99.90;;;;;;5075465;28;20225;-69
2022/06/20 08:07:13;;;;;;;8.52;4.70;;;21.50;99.90;;;;;;5076853;28;20171;-68
2022/06/20 08:09:58;;;;;;;6.40;4.53;;;21.50;99.90;;;;;;5078213;28;20156;-69
2022/06/20 08:12:33;;;;;;;9.23;5.70;;;21.50;99.90;;;;;;5076419;28;20163;-69
2022/06/20 08:15:21;;;;;;;10.48;5.03;;;21.40;99.90;;;;;;5077462;28;20163;-69
2022/06/20 08:17:47;;;;;;;11.88;4.68;;;21.40;99.90;;;;;;5075599;28;20167;-69
2022/06/20 08:20:12;;;;;;;11.48;4.88;;;21.60;99.90;;;;;;5076873;28;20160;-70
2022/06/20 08:23:03;;;;;;;7.93;5.43;;;21.70;99.90;;;;;;5058647;28;20211;-69
2022/06/20 08:25:36;;;;;;;6.53;4.88;;;21.90;99.90;;;;;;5075219;28;20171;-69
2022/06/20 08:28:32;;;;;;;7.00;4.75;;;22.00;99.90;;;;;;5076286;28;20206;-69
2022/06/20 08:31:11;;;;;;;9.52;5.18;;;22.20;99.90;;;;;;5057721;28;20184;-71
2022/06/20 08:33:42;;;;;;;6.47;5.00;;;22.30;99.90;;;;;;5076310;28;20152;-69
2022/06/20 08:36:23;;;;;;;6.07;4.57;;;22.20;99.90;;;;;;5076591;28;20164;-68
2022/06/20 08:38:57;;;;;;;7.03;5.15;;;22.70;99.90;;;;;;5076106;28;20189;-68
2022/06/20 08:41:57;;;;;;;7.35;5.28;;;22.70;99.90;;;;;;5077668;28;20198;-70
2022/06/20 08:44:29;;;;;;;11.48;4.70;;;22.10;99.90;;;;;;5057629;28;20229;-70
2022/06/20 08:47:25;;;;;;;9.85;5.05;;;22.30;99.90;;;;;;5075378;28;20208;-69
2022/06/20 08:50:08;;;;;;;9.70;5.72;;;22.70;99.90;;;;;;5083507;28;20206;-69
2022/06/20 08:53:04;;;;;;;10.85;4.63;;;23.00;99.90;;;;;;5080271;28;20172;-69
2022/06/20 08:55:38;;;;;;;6.82;4.60;;;23.20;99.90;;;;;;5076956;28;20172;-69
2022/06/20 08:58:07;;;;;;;8.80;5.35;;;23.00;99.90;;;;;;5074517;28;20247;-69
2022/06/20 09:00:46;;;;;;;6.13;4.95;;;22.80;99.90;;;;;;5074158;28;20163;-71
2022/06/20 09:03:48;;;;;;;6.43;5.50;;;22.70;99.90;;;;;;5075672;28;20210;-69
2022/06/20 09:06:35;;;;;;;8.23;4.70;;;22.70;99.90;;;;;;5090483;28;20179;-69
2022/06/20 09:09:22;;;;;;;10.90;5.22;;;23.20;99.90;;;;;;5080575;28;20216;-70
2022/06/20 09:12:00;;;;;;;7.90;4.72;;;23.80;99.90;;;;;;5077246;28;20195;-70
2022/06/20 09:14:38;;;;;;;12.27;5.70;;;23.50;99.90;;;;;;5074446;28;20167;-70
2022/06/20 09:17:28;;;;;;;5.90;5.13;;;23.10;99.90;;;;;;5073954;28;20533;-69
2022/06/20 09:20:00;;;;;;;6.80;5.07;;;23.00;99.90;;;;;;5074061;28;20159;-69
2022/06/20 09:22:55;;;;;;;6.43;4.75;;;23.60;99.90;;;;;;5074215;28;20199;-70
2022/06/20 09:25:54;;;;;;;11.23;4.75;;;23.80;99.90;;;;;;5073996;28;20170;-68
2022/06/20 10:28:50;;;;;;;6.28;5.22;;;23.10;99.90;;;;;;5038029;28;20242;-72
2022/06/20 10:31:40;;;;;;;8.05;5.07;;;22.60;99.90;;;;;;5038472;28;20194;-70
2022/06/20 10:34:11;;;;;;;7.70;5.18;;;22.10;99.90;;;;;;5036553;28;20189;-69
2022/06/20 10:36:50;;;;;;;11.85;5.72;;;21.60;99.90;;;;;;5048149;28;20291;-67
2022/06/20 10:39:39;;;;;;;11.60;5.90;;;21.80;99.90;;;;;;5040073;28;20577;-68
2022/06/20 10:42:18;;;;;;;9.27;5.43;;;21.70;99.90;;;;;;5035917;28;20220;-70
2022/06/20 10:45:22;;;;;;;8.57;5.88;;;21.30;99.90;;;;;;5041644;28;20267;-68
2022/06/20 10:48:03;;;;;;;12.93;7.15;;;21.50;99.90;;;;;;5041916;28;20206;-68
2022/06/20 10:50:49;;;;;;;9.07;6.40;;;21.70;99.90;;;;;;5035138;28;20192;-66
2022/06/20 10:53:26;;;;;;;13.15;6.47;;;21.60;99.90;;;;;;5039252;28;20196;-68
2022/06/20 10:56:02;;;;;;;8.13;5.80;;;21.80;99.90;;;;;;5038521;28;20187;-69
2022/06/20 10:58:46;;;;;;;10.55;5.60;;;21.70;99.90;;;;;;5038788;28;20184;-69
2022/06/20 11:01:33;;;;;;;11.65;5.60;;;21.80;99.90;;;;;;5040554;28;20216;-69
2022/06/20 11:04:15;;;;;;;12.32;6.82;;;21.60;99.90;;;;;;5046134;28;20521;-74
2022/06/20 11:07:00;;;;;;;5.75;4.63;;;21.40;99.90;;;;;;5043879;28;20187;-74
2022/06/20 11:09:51;;;;;;;11.82;4.63;;;21.70;99.90;;;;;;5043793;28;20271;-75
2022/06/20 11:12:32;;;;;;;7.47;4.53;;;22.30;99.90;;;;;;5040346;28;20639;-74
2022/06/20 11:15:21;;;;;;;6.32;5.10;;;22.50;99.90;;;;;;5048804;28;20254;-75
2022/06/20 11:18:29;;;;;;;7.70;4.43;;;22.10;99.90;;;;;;5041309;28;20601;-76
2022/06/20 11:21:10;;;;;;;6.63;4.50;;;21.90;99.90;;;;;;5056506;28;20274;-77
2022/06/20 11:24:09;;;;;;;7.35;5.13;;;21.90;99.90;;;;;;5056285;28;20204;-73
2022/06/20 11:27:06;;;;;;;8.75;5.22;;;21.80;99.90;;;;;;5055790;28;20809;-73
2022/06/20 11:30:02;;;;;;;8.50;4.68;;;21.40;99.90;;;;;;5053126;28;20237;-74
2022/06/20 11:32:42;;;;;;;6.50;4.53;;;21.20;99.90;;;;;;5054726;28;20279;-74
2022/06/20 11:35:26;;;;;;;5.80;4.65;;;21.10;99.90;;;;;;5044232;28;20818;-74
2022/06/20 11:38:08;;;;;;;7.32;5.10;;;21.30;99.90;;;;;;5038294;28;20189;-74
2022/06/20 11:41:00;;;;;;;5.85;4.47;;;21.20;99.90;;;;;;5036318;28;20858;-73
2022/06/20 11:43:55;;;;;;;6.20;4.00;;;21.00;99.90;;;;;;5040352;28;20235;-76
2022/06/20 11:46:44;;;;;;;6.32;4.22;;;20.90;99.90;;;;;;5038969;28;20290;-75
2022/06/20 11:49:18;;;;;;;5.05;4.30;;;21.10;99.90;;;;;;5038375;28;20192;-74
2022/06/20 11:52:08;;;;;;;6.95;4.63;;;21.10;99.90;;;;;;5040701;28;20192;-76
2022/06/20 11:54:56;;;;;;;11.52;4.30;;;21.20;99.90;;;;;;5040248;28;20207;-76
2022/06/20 11:57:46;;;;;;;5.57;4.05;;;20.90;99.90;;;;;;5041194;28;20188;-73
2022/06/20 12:00:25;;;;;;;4.85;4.03;;;20.70;99.90;;;;;;5034769;28;20194;-78
2022/06/20 12:03:16;;;;;;;5.47;3.75;;;20.90;99.90;;;;;;5039505;28;20239;-76
2022/06/20 12:06:05;;;;;;;5.05;4.55;;;20.60;99.90;;;;;;5034651;28;20188;-74
2022/06/20 12:08:47;;;;;;;4.82;4.00;;;20.60;99.90;;;;;;5039793;28;20191;-78
2022/06/20 12:11:17;;;;;;;5.80;4.30;;;20.20;99.90;;;;;;5039591;28;20200;-73
2022/06/20 12:13:57;;;;;;;4.63;4.00;;;20.00;99.90;;;;;;5037738;28;20200;-72
2022/06/20 12:16:40;;;;;;;8.50;4.05;;;19.60;99.90;;;;;;5000221;28;20388;-76
2022/06/20 12:25:30;;;;;;;3.97;3.40;;;18.60;99.90;;;;;;4997351;28;20810;-73
2022/06/20 12:27:56;;;;;;;5.18;3.63;;;18.40;99.90;;;;;;5002838;28;20235;-76
2022/06/20 12:30:22;;;;;;;3.63;3.15;;;18.40;99.90;;;;;;5017562;28;20198;-76
2022/06/20 12:32:53;;;;;;;3.33;2.97;;;18.20;99.90;;;;;;5012902;28;20187;-73
2022/06/20 12:35:35;;;;;;;5.60;3.03;;;18.20;99.90;;;;;;5017847;28;20197;-76
2022/06/20 12:38:11;;;;;;;3.63;2.83;;;18.10;99.90;;;;;;5014680;28;20189;-74
2022/06/20 12:40:52;;;;;;;4.38;3.42;;;18.00;99.90;;;;;;5018121;28;20193;-74
2022/06/20 12:43:22;;;;;;;3.83;3.40;;;17.90;99.90;;;;;;5015344;28;20797;-74
2022/06/20 12:46:08;;;;;;;3.28;2.95;;;18.00;99.90;;;;;;5017033;28;20231;-75
2022/06/20 12:48:45;;;;;;;4.07;2.95;;;18.00;99.90;;;;;;5017881;28;20189;-75
2022/06/20 12:52:02;;;;;;;3.33;2.90;;;18.00;99.90;;;;;;5020444;28;20212;-74
2022/06/20 12:55:01;;;;;;;4.80;3.10;;;18.10;99.90;;;;;;4925793;29;20192;-75
2022/06/20 12:57:50;;;;;;;3.08;2.63;;;18.10;99.90;;;;;;4931786;29;20311;-73
2022/06/20 13:00:33;;;;;;;3.65;3.10;;;18.10;99.90;;;;;;5013548;28;20209;-76
2022/06/20 13:03:41;;;;;;;4.22;3.25;;;18.10;99.90;;;;;;5031622;28;20231;-74
2022/06/20 13:06:47;;;;;;;3.95;2.90;;;18.10;99.90;;;;;;5023417;28;20280;-72
2022/06/20 13:09:25;;;;;;;3.00;2.75;;;17.90;99.90;;;;;;5019692;28;20203;-74
2022/06/20 13:12:00;;;;;;;4.47;2.97;;;18.00;99.90;;;;;;5017746;28;20421;-74
2022/06/20 13:15:07;;;;;;;3.22;2.58;;;17.90;99.90;;;;;;5016077;28;20258;-76
2022/06/20 13:17:46;;;;;;;3.05;2.60;;;17.50;99.90;;;;;;5017925;28;20188;-71
2022/06/20 13:20:35;;;;;;;2.88;2.20;;;17.40;99.90;;;;;;5016341;28;20193;-74
2022/06/20 13:23:11;;;;;;;2.45;2.25;;;17.30;99.90;;;;;;5013130;28;20612;-71
2022/06/20 13:25:52;;;;;;;2.90;2.60;;;17.20;99.90;;;;;;5013270;28;20675;-71
2022/06/20 13:28:40;;;;;;;2.27;2.07;;;17.30;99.90;;;;;;4999719;28;22108;-70
2022/06/20 13:31:20;;;;;;;2.58;2.35;;;17.20;99.90;;;;;;5015425;28;20219;-70
2022/06/20 13:34:10;;;;;;;4.27;2.97;;;17.20;99.90;;;;;;5022398;28;20212;-70
2022/06/20 13:36:44;;;;;;;2.53;2.33;;;17.40;99.90;;;;;;5026763;28;20189;-71
2022/06/20 13:39:57;;;;;;;5.00;2.80;;;17.40;99.90;;;;;;5027103;28;20219;-70
2022/06/20 13:42:34;;;;;;;2.90;2.58;;;17.30;99.90;;;;;;5007311;28;20228;-72
2022/06/20 13:45:09;;;;;;;2.83;2.58;;;17.30;99.90;;;;;;5030002;28;20184;-73
2022/06/20 13:48:08;;;;;;;3.93;3.03;;;17.30;99.90;;;;;;5021816;28;20195;-71
2022/06/20 13:50:39;;;;;;;3.90;2.83;;;17.30;99.90;;;;;;5021063;28;20201;-72
2022/06/20 13:53:29;;;;;;;3.63;2.67;;;17.10;99.90;;;;;;5024714;28;20185;-70
2022/06/20 13:56:21;;;;;;;2.47;2.27;;;17.10;99.90;;;;;;5024431;28;20244;-72
2022/06/20 13:59:22;;;;;;;4.70;2.00;;;17.10;99.90;;;;;;5019083;28;20192;-72
2022/06/20 14:02:01;;;;;;;5.13;2.80;;;17.20;99.90;;;;;;5011282;28;20684;-72
2022/06/20 14:04:30;;;;;;;3.07;2.77;;;16.90;99.90;;;;;;5019007;28;20192;-71
2022/06/20 14:07:05;;;;;;;3.13;2.47;;;17.10;99.90;;;;;;5017892;28;20268;-71
2022/06/20 14:09:41;;;;;;;3.63;2.23;;;17.00;99.90;;;;;;5018052;28;20185;-72
2022/06/20 14:12:32;;;;;;;4.40;3.23;;;16.80;99.90;;;;;;5016803;28;20225;-71
2022/06/20 14:15:21;;;;;;;3.10;2.70;;;16.60;99.90;;;;;;5016983;28;20527;-72
2022/06/20 14:17:54;;;;;;;3.43;2.97;;;16.70;99.90;;;;;;5017498;28;20197;-70
2022/06/20 14:20:33;;;;;;;3.27;2.90;;;16.80;99.90;;;;;;5017611;28;20203;-73
2022/06/20 14:23:01;;;;;;;4.43;2.90;;;16.80;99.90;;;;;;5018672;28;20251;-72
2022/06/20 14:25:47;;;;;;;3.87;2.63;;;16.90;99.90;;;;;;5017910;28;20201;-73
2022/06/20 14:28:25;;;;;;;4.47;2.47;;;16.70;99.90;;;;;;5016942;28;20693;-71
2022/06/20 14:30:58;;;;;;;4.77;2.50;;;16.50;99.90;;;;;;5017464;28;20234;-71
2022/06/20 14:33:33;;;;;;;6.27;2.50;;;16.40;99.90;;;;;;5018161;28;20198;-70
2022/06/20 14:36:25;;;;;;;5.83;2.70;;;16.60;99.90;;;;;;5016337;28;20191;-71
2022/06/20 14:38:55;;;;;;;4.00;2.50;;;16.70;99.90;;;;;;5018762;28;20306;-72
2022/06/20 14:41:41;;;;;;;2.80;2.30;;;16.40;99.90;;;;;;5017064;28;20201;-69
2022/06/20 14:44:26;;;;;;;2.90;2.30;;;16.50;99.90;;;;;;5022786;28;20195;-70
2022/06/20 14:47:17;;;;;;;4.10;2.50;;;16.30;99.90;;;;;;5024374;28;20222;-72
2022/06/20 14:50:15;;;;;;;2.97;2.20;;;16.40;99.90;;;;;;5028376;28;20201;-73
2022/06/20 14:52:43;;;;;;;2.43;2.17;;;16.50;99.90;;;;;;5029576;28;20189;-71
2022/06/20 14:55:31;;;;;;;1.70;1.30;;;16.40;99.90;;;;;;5031395;28;20248;-69